QFA628 WSSS-WMKK
Flight info
| Callsign | QFA628 |
|---|---|
| Flight time | 0h 33m |
| Altitude | 22000 |
| Route | MASBO3E MASBO A457 GUPTA GUPTA3K |
| Aircraft | B738/M-SDE2E3FGHIRWXY/LB1 |
Departure
| Time | 2026-05-05 07:10 |
|---|---|
| Airport | Singapore Changi Airport (WSSS) |
Arrival
| Time | 2026-05-05 07:43 |
|---|---|
| Airport | Kuala Lumpur International Airport (WMKK) |
| Time | Latitude | Longitude | Altitude | Speed | Heading |
|---|---|---|---|---|---|
| 2026-05-05 06:48 | 1.34898 | 103.98296 | 28 ft | 0 kts | 330° |
| 2026-05-05 07:02 | 1.34890 | 103.98301 | 28 ft | 3 kts | 331° |
| 2026-05-05 07:02 | 1.34872 | 103.98310 | 28 ft | 3 kts | 331° |
| 2026-05-05 07:02 | 1.34855 | 103.98320 | 28 ft | 3 kts | 326° |
| 2026-05-05 07:02 | 1.34840 | 103.98333 | 28 ft | 3 kts | 301° |
| 2026-05-05 07:03 | 1.34835 | 103.98344 | 28 ft | 2 kts | 247° |
| 2026-05-05 07:03 | 1.34836 | 103.98347 | 28 ft | 1 kts | 242° |
| 2026-05-05 07:06 | 1.34836 | 103.98346 | 28 ft | 1 kts | 242° |
| 2026-05-05 07:06 | 1.34826 | 103.98327 | 28 ft | 5 kts | 242° |
| 2026-05-05 07:06 | 1.34805 | 103.98288 | 28 ft | 7 kts | 244° |
| 2026-05-05 07:07 | 1.34796 | 103.98239 | 29 ft | 8 kts | 279° |
| 2026-05-05 07:07 | 1.34814 | 103.98189 | 29 ft | 7 kts | 294° |
| 2026-05-05 07:07 | 1.34827 | 103.98139 | 29 ft | 8 kts | 261° |
| 2026-05-05 07:07 | 1.34791 | 103.98081 | 30 ft | 11 kts | 246° |
| 2026-05-05 07:08 | 1.34802 | 103.98008 | 30 ft | 10 kts | 291° |
| 2026-05-05 07:08 | 1.34829 | 103.97943 | 30 ft | 10 kts | 294° |
| 2026-05-05 07:08 | 1.34856 | 103.97879 | 31 ft | 10 kts | 293° |
| 2026-05-05 07:08 | 1.34884 | 103.97814 | 32 ft | 11 kts | 293° |
| 2026-05-05 07:09 | 1.34938 | 103.97766 | 32 ft | 12 kts | 3° |
| 2026-05-05 07:09 | 1.34956 | 103.97772 | 32 ft | 2 kts | 25° |
| 2026-05-05 07:09 | 1.35184 | 103.97870 | 31 ft | 85 kts | 22° |
| 2026-05-05 07:09 | 1.36027 | 103.98234 | 35 ft | 174 kts | 26° |
| 2026-05-05 07:10 | 1.37229 | 103.98733 | 985 ft | 189 kts | 23° |
| 2026-05-05 07:10 | 1.38407 | 103.99240 | 2530 ft | 187 kts | 23° |
| 2026-05-05 07:10 | 1.39674 | 103.99784 | 3524 ft | 211 kts | 22° |
| 2026-05-05 07:10 | 1.41150 | 104.00402 | 4048 ft | 245 kts | 22° |
| 2026-05-05 07:11 | 1.42728 | 104.01066 | 5051 ft | 250 kts | 22° |
| 2026-05-05 07:11 | 1.44383 | 104.01762 | 5933 ft | 269 kts | 22° |
| 2026-05-05 07:11 | 1.46157 | 104.02509 | 6941 ft | 281 kts | 22° |
| 2026-05-05 07:11 | 1.47971 | 104.03270 | 8114 ft | 284 kts | 20° |
| 2026-05-05 07:12 | 1.49925 | 104.03608 | 9183 ft | 290 kts | 357° |
| 2026-05-05 07:12 | 1.51906 | 104.03136 | 10192 ft | 296 kts | 336° |
| 2026-05-05 07:12 | 1.53803 | 104.02227 | 10755 ft | 320 kts | 334° |
| 2026-05-05 07:12 | 1.55901 | 104.01150 | 10980 ft | 352 kts | 333° |
| 2026-05-05 07:13 | 1.58126 | 104.00002 | 11637 ft | 365 kts | 333° |
| 2026-05-05 07:13 | 1.60399 | 103.98840 | 12657 ft | 367 kts | 334° |
| 2026-05-05 07:13 | 1.62668 | 103.97691 | 13565 ft | 372 kts | 334° |
| 2026-05-05 07:13 | 1.64992 | 103.96521 | 14312 ft | 379 kts | 334° |
| 2026-05-05 07:14 | 1.67358 | 103.95334 | 15078 ft | 383 kts | 334° |
| 2026-05-05 07:14 | 1.69760 | 103.94130 | 15839 ft | 388 kts | 334° |
| 2026-05-05 07:14 | 1.72189 | 103.92904 | 16589 ft | 393 kts | 332° |
| 2026-05-05 07:14 | 1.74356 | 103.91221 | 17252 ft | 401 kts | 311° |
| 2026-05-05 07:15 | 1.75829 | 103.88831 | 17955 ft | 407 kts | 292° |
| 2026-05-05 07:15 | 1.76511 | 103.86113 | 18563 ft | 411 kts | 279° |
| 2026-05-05 07:15 | 1.76912 | 103.83258 | 19163 ft | 415 kts | 278° |
| 2026-05-05 07:15 | 1.77291 | 103.80377 | 19724 ft | 419 kts | 278° |
| 2026-05-05 07:16 | 1.77683 | 103.77509 | 20268 ft | 423 kts | 278° |
| 2026-05-05 07:16 | 1.78106 | 103.74586 | 20808 ft | 426 kts | 278° |
| 2026-05-05 07:16 | 1.78548 | 103.71636 | 21335 ft | 430 kts | 279° |
| 2026-05-05 07:16 | 1.78997 | 103.68661 | 21768 ft | 436 kts | 278° |
| 2026-05-05 07:17 | 1.79447 | 103.65605 | 21792 ft | 451 kts | 278° |
| 2026-05-05 07:17 | 1.79902 | 103.62444 | 21818 ft | 465 kts | 278° |
| 2026-05-05 07:17 | 1.80361 | 103.59236 | 21823 ft | 478 kts | 278° |
| 2026-05-05 07:17 | 1.80838 | 103.55901 | 21816 ft | 490 kts | 278° |
| 2026-05-05 07:18 | 1.81325 | 103.52506 | 21807 ft | 489 kts | 278° |
| 2026-05-05 07:18 | 1.81804 | 103.49167 | 21795 ft | 477 kts | 278° |
| 2026-05-05 07:18 | 1.82268 | 103.45944 | 21804 ft | 472 kts | 278° |
| 2026-05-05 07:18 | 1.82736 | 103.42697 | 21816 ft | 473 kts | 278° |
| 2026-05-05 07:19 | 1.83205 | 103.39438 | 21823 ft | 474 kts | 278° |
| 2026-05-05 07:19 | 1.83676 | 103.36169 | 21808 ft | 475 kts | 278° |
| 2026-05-05 07:19 | 1.84148 | 103.32892 | 21823 ft | 475 kts | 278° |
| 2026-05-05 07:19 | 1.84632 | 103.29631 | 21807 ft | 475 kts | 281° |
| 2026-05-05 07:20 | 1.85634 | 103.26487 | 21812 ft | 474 kts | 296° |
| 2026-05-05 07:20 | 1.87097 | 103.23580 | 21819 ft | 473 kts | 298° |
| 2026-05-05 07:20 | 1.88617 | 103.20629 | 21812 ft | 473 kts | 298° |
| 2026-05-05 07:20 | 1.90100 | 103.17726 | 21807 ft | 473 kts | 297° |
| 2026-05-05 07:21 | 1.91569 | 103.14808 | 21812 ft | 472 kts | 297° |
| 2026-05-05 07:21 | 1.93023 | 103.11881 | 21813 ft | 472 kts | 297° |
| 2026-05-05 07:21 | 1.94487 | 103.08909 | 21819 ft | 472 kts | 297° |
| 2026-05-05 07:21 | 1.95938 | 103.05952 | 21813 ft | 472 kts | 296° |
| 2026-05-05 07:22 | 1.97372 | 103.03026 | 21815 ft | 472 kts | 296° |
| 2026-05-05 07:22 | 1.98822 | 103.00071 | 21817 ft | 472 kts | 297° |
| 2026-05-05 07:22 | 2.00258 | 102.97146 | 21818 ft | 472 kts | 297° |
| 2026-05-05 07:22 | 2.01702 | 102.94205 | 21815 ft | 472 kts | 297° |
| 2026-05-05 07:23 | 2.03159 | 102.91240 | 21818 ft | 472 kts | 297° |
| 2026-05-05 07:23 | 2.04604 | 102.88300 | 21823 ft | 472 kts | 297° |
| 2026-05-05 07:23 | 2.06040 | 102.85360 | 21824 ft | 473 kts | 296° |
| 2026-05-05 07:23 | 2.07470 | 102.82417 | 21821 ft | 473 kts | 296° |
| 2026-05-05 07:24 | 2.08906 | 102.79452 | 21824 ft | 473 kts | 296° |
| 2026-05-05 07:24 | 2.10340 | 102.76490 | 21817 ft | 473 kts | 296° |
| 2026-05-05 07:24 | 2.11776 | 102.73528 | 21818 ft | 473 kts | 296° |
| 2026-05-05 07:24 | 2.13214 | 102.70562 | 21818 ft | 472 kts | 296° |
| 2026-05-05 07:25 | 2.14633 | 102.67639 | 21819 ft | 472 kts | 296° |
| 2026-05-05 07:25 | 2.16066 | 102.64685 | 21809 ft | 464 kts | 296° |
| 2026-05-05 07:25 | 2.17499 | 102.61823 | 21812 ft | 458 kts | 298° |
| 2026-05-05 07:25 | 2.18992 | 102.59047 | 21830 ft | 458 kts | 299° |
| 2026-05-05 07:26 | 2.20541 | 102.56252 | 21828 ft | 459 kts | 300° |
| 2026-05-05 07:26 | 2.22098 | 102.53459 | 21552 ft | 461 kts | 300° |
| 2026-05-05 07:26 | 2.23649 | 102.50667 | 20948 ft | 456 kts | 300° |
| 2026-05-05 07:26 | 2.25173 | 102.47899 | 20292 ft | 451 kts | 299° |
| 2026-05-05 07:27 | 2.26651 | 102.45200 | 19632 ft | 446 kts | 299° |
| 2026-05-05 07:27 | 2.28134 | 102.42482 | 18941 ft | 442 kts | 299° |
| 2026-05-05 07:27 | 2.29603 | 102.39782 | 18256 ft | 440 kts | 299° |
| 2026-05-05 07:27 | 2.31060 | 102.37104 | 17491 ft | 437 kts | 299° |
| 2026-05-05 07:28 | 2.32505 | 102.34447 | 16790 ft | 432 kts | 299° |
| 2026-05-05 07:28 | 2.33932 | 102.31825 | 16110 ft | 427 kts | 299° |
| 2026-05-05 07:28 | 2.35330 | 102.29255 | 15480 ft | 422 kts | 299° |
| 2026-05-05 07:28 | 2.36701 | 102.26734 | 15282 ft | 398 kts | 299° |
| 2026-05-05 07:29 | 2.37983 | 102.24378 | 15123 ft | 373 kts | 299° |
| 2026-05-05 07:29 | 2.39185 | 102.22168 | 14997 ft | 351 kts | 299° |
| 2026-05-05 07:29 | 2.40324 | 102.20074 | 14866 ft | 331 kts | 299° |
| 2026-05-05 07:29 | 2.41384 | 102.18126 | 14723 ft | 315 kts | 299° |
| 2026-05-05 07:30 | 2.42426 | 102.16212 | 14293 ft | 312 kts | 299° |
| 2026-05-05 07:30 | 2.44506 | 102.12390 | 13289 ft | 309 kts | 299° |
| 2026-05-05 07:30 | 2.45529 | 102.10509 | 12794 ft | 307 kts | 299° |
| 2026-05-05 07:31 | 2.46545 | 102.08643 | 12324 ft | 303 kts | 299° |
| 2026-05-05 07:31 | 2.47532 | 102.06828 | 11911 ft | 298 kts | 299° |
| 2026-05-05 07:31 | 2.48523 | 102.05005 | 11422 ft | 297 kts | 299° |
| 2026-05-05 07:31 | 2.49509 | 102.03192 | 10976 ft | 294 kts | 298° |
| 2026-05-05 07:32 | 2.50474 | 102.01418 | 10687 ft | 285 kts | 298° |
| 2026-05-05 07:32 | 2.51401 | 101.99715 | 10472 ft | 274 kts | 299° |
| 2026-05-05 07:32 | 2.52155 | 101.98020 | 10182 ft | 267 kts | 281° |
| 2026-05-05 07:32 | 2.52116 | 101.96209 | 9942 ft | 259 kts | 255° |
| 2026-05-05 07:33 | 2.51392 | 101.94599 | 9750 ft | 249 kts | 238° |
| 2026-05-05 07:33 | 2.50446 | 101.93177 | 9499 ft | 242 kts | 235° |
| 2026-05-05 07:33 | 2.49496 | 101.91816 | 9186 ft | 238 kts | 236° |
| 2026-05-05 07:33 | 2.48950 | 101.90276 | 8764 ft | 237 kts | 273° |
| 2026-05-05 07:34 | 2.49513 | 101.88774 | 8347 ft | 233 kts | 315° |
| 2026-05-05 07:34 | 2.50838 | 101.87914 | 8008 ft | 230 kts | 334° |
| 2026-05-05 07:34 | 2.52136 | 101.86984 | 7624 ft | 232 kts | 308° |
| 2026-05-05 07:34 | 2.52752 | 101.85508 | 7266 ft | 232 kts | 275° |
| 2026-05-05 07:35 | 2.52481 | 101.83941 | 6908 ft | 233 kts | 242° |
| 2026-05-05 07:35 | 2.51416 | 101.82762 | 6551 ft | 232 kts | 210° |
| 2026-05-05 07:35 | 2.49881 | 101.82331 | 6167 ft | 231 kts | 176° |
| 2026-05-05 07:35 | 2.48378 | 101.82769 | 5799 ft | 228 kts | 149° |
| 2026-05-05 07:36 | 2.47215 | 101.83800 | 5574 ft | 219 kts | 114° |
| 2026-05-05 07:36 | 2.47016 | 101.85238 | 5584 ft | 209 kts | 72° |
| 2026-05-05 07:36 | 2.47832 | 101.86389 | 5602 ft | 213 kts | 32° |
| 2026-05-05 07:36 | 2.49265 | 101.86938 | 5479 ft | 227 kts | 10° |
| 2026-05-05 07:37 | 2.50847 | 101.86968 | 5271 ft | 233 kts | 357° |
| 2026-05-05 07:37 | 2.52478 | 101.86827 | 4980 ft | 235 kts | 348° |
| 2026-05-05 07:37 | 2.53985 | 101.86197 | 4728 ft | 236 kts | 331° |
| 2026-05-05 07:37 | 2.55395 | 101.85323 | 4420 ft | 238 kts | 328° |
| 2026-05-05 07:38 | 2.56762 | 101.84412 | 4128 ft | 238 kts | 327° |
| 2026-05-05 07:38 | 2.58121 | 101.83492 | 3814 ft | 233 kts | 327° |
| 2026-05-05 07:38 | 2.59459 | 101.82587 | 3508 ft | 229 kts | 327° |
| 2026-05-05 07:38 | 2.60766 | 101.81703 | 3232 ft | 223 kts | 327° |
| 2026-05-05 07:39 | 2.62018 | 101.80858 | 2955 ft | 216 kts | 326° |
| 2026-05-05 07:39 | 2.62855 | 101.80293 | 2756 ft | 212 kts | 326° |
| 2026-05-05 07:39 | 2.64046 | 101.79489 | 2492 ft | 207 kts | 326° |
| 2026-05-05 07:39 | 2.65223 | 101.78695 | 2230 ft | 199 kts | 326° |
| 2026-05-05 07:40 | 2.66335 | 101.77944 | 1998 ft | 184 kts | 325° |
| 2026-05-05 07:40 | 2.67346 | 101.77262 | 1767 ft | 166 kts | 324° |
| 2026-05-05 07:40 | 2.68260 | 101.76646 | 1558 ft | 155 kts | 324° |
| 2026-05-05 07:40 | 2.69152 | 101.76043 | 1352 ft | 153 kts | 323° |
| 2026-05-05 07:41 | 2.70026 | 101.75451 | 1189 ft | 151 kts | 323° |
| 2026-05-05 07:41 | 2.70879 | 101.74876 | 995 ft | 148 kts | 323° |
| 2026-05-05 07:41 | 2.71745 | 101.74294 | 804 ft | 152 kts | 324° |
| 2026-05-05 07:41 | 2.72630 | 101.73692 | 652 ft | 155 kts | 324° |
| 2026-05-05 07:42 | 2.73534 | 101.73087 | 424 ft | 158 kts | 325° |
| 2026-05-05 07:42 | 2.74423 | 101.72477 | 226 ft | 153 kts | 325° |
| 2026-05-05 07:42 | 2.75294 | 101.71893 | 71 ft | 144 kts | 327° |
| 2026-05-05 07:42 | 2.76000 | 101.71426 | 66 ft | 95 kts | 327° |
| 2026-05-05 07:43 | 2.76243 | 101.71238 | 69 ft | 33 kts | 328° |
| 2026-05-05 07:43 | 2.76434 | 101.71104 | 67 ft | 34 kts | 321° |
| 2026-05-05 07:43 | 2.76562 | 101.70965 | 62 ft | 22 kts | 299° |
| 2026-05-05 07:43 | 2.76583 | 101.70864 | 67 ft | 10 kts | 234° |
| 2026-05-05 07:44 | 2.76531 | 101.70850 | 67 ft | 7 kts | 168° |
| 2026-05-05 07:44 | 2.76486 | 101.70877 | 64 ft | 9 kts | 147° |
| 2026-05-05 07:44 | 2.76425 | 101.70916 | 63 ft | 12 kts | 147° |
| 2026-05-05 07:44 | 2.76354 | 101.70963 | 66 ft | 13 kts | 145° |
| 2026-05-05 07:45 | 2.76272 | 101.71009 | 69 ft | 15 kts | 155° |
| 2026-05-05 07:45 | 2.76175 | 101.71038 | 63 ft | 14 kts | 171° |
| 2026-05-05 07:45 | 2.76079 | 101.71056 | 70 ft | 14 kts | 165° |
| 2026-05-05 07:45 | 2.75993 | 101.71090 | 68 ft | 13 kts | 154° |
| 2026-05-05 07:46 | 2.75919 | 101.71142 | 64 ft | 13 kts | 143° |
| 2026-05-05 07:46 | 2.75848 | 101.71191 | 62 ft | 12 kts | 146° |
| 2026-05-05 07:46 | 2.75777 | 101.71239 | 71 ft | 12 kts | 147° |
| 2026-05-05 07:46 | 2.75705 | 101.71284 | 71 ft | 13 kts | 148° |
| 2026-05-05 07:47 | 2.75624 | 101.71307 | 68 ft | 12 kts | 194° |
| 2026-05-05 07:47 | 2.75564 | 101.71249 | 72 ft | 12 kts | 233° |
| 2026-05-05 07:47 | 2.75519 | 101.71179 | 70 ft | 12 kts | 238° |
| 2026-05-05 07:47 | 2.75474 | 101.71112 | 67 ft | 12 kts | 236° |
| 2026-05-05 07:48 | 2.75429 | 101.71044 | 66 ft | 13 kts | 236° |
| 2026-05-05 07:48 | 2.75372 | 101.70967 | 68 ft | 14 kts | 237° |
| 2026-05-05 07:48 | 2.75341 | 101.70879 | 69 ft | 14 kts | 285° |
| 2026-05-05 07:48 | 2.75383 | 101.70842 | 66 ft | 6 kts | 327° |
| 2026-05-05 07:49 | 2.75393 | 101.70835 | 69 ft | 0 kts | 327° |